Time;durP1;ratioP1;P1;durP2;ratioP2;P2;SDS_P1;SDS_P2;PMS_P1;PMS_P2;Temp;Humidity;BMP_temperature;BMP_pressure;BME280_temperature;BME280_humidity;BME280_pressure;Samples;Min_cycle;Max_cycle;Signal;HPM_P1;HPM_P2
2023/08/17 00:01:38;;;;;;;20.35;14.50;;;;;;;20.47;100.00;101270.31;4960950;28;20074;-71
2023/08/17 00:04:04;;;;;;;15.77;14.05;;;;;;;20.46;100.00;101276.50;4960657;28;20047;-71
2023/08/17 00:06:29;;;;;;;20.08;13.07;;;;;;;20.47;100.00;101275.59;4963356;28;20042;-71
2023/08/17 00:08:55;;;;;;;15.40;13.13;;;;;;;20.47;100.00;101281.69;4969977;28;20037;-72
2023/08/17 00:11:20;;;;;;;15.27;11.18;;;;;;;20.47;100.00;101279.06;4974152;28;20097;-71
2023/08/17 00:13:46;;;;;;;15.65;12.85;;;;;;;20.49;100.00;101290.34;4972031;28;20069;-72
2023/08/17 00:16:11;;;;;;;16.45;12.98;;;;;;;20.49;100.00;101289.50;4968227;28;20064;-71
2023/08/17 00:18:36;;;;;;;12.98;11.43;;;;;;;20.49;100.00;101294.75;4955860;28;20055;-72
2023/08/17 00:21:03;;;;;;;15.25;12.45;;;;;;;20.50;100.00;101286.81;4961933;28;20649;-71
2023/08/17 00:23:29;;;;;;;22.10;12.88;;;;;;;20.49;100.00;101290.34;4965570;28;20093;-71
2023/08/17 00:25:54;;;;;;;19.95;13.25;;;;;;;20.49;100.00;101289.50;4963811;28;20046;-72
2023/08/17 00:28:19;;;;;;;18.80;14.00;;;;;;;20.49;100.00;101297.38;4948634;28;20046;-71
2023/08/17 00:30:45;;;;;;;18.60;13.73;;;;;;;20.48;100.00;101298.31;4962363;28;20039;-71
2023/08/17 00:33:10;;;;;;;16.20;13.75;;;;;;;20.46;100.00;101298.34;4946453;28;20427;-71
2023/08/17 00:35:35;;;;;;;18.90;13.55;;;;;;;20.47;100.00;101299.22;4966108;28;20058;-72
2023/08/17 00:38:01;;;;;;;18.25;14.18;;;;;;;20.47;100.00;101312.34;4966389;28;20049;-71
2023/08/17 00:40:26;;;;;;;13.98;11.95;;;;;;;20.48;100.00;101295.69;4964000;28;20134;-71
2023/08/17 00:42:51;;;;;;;19.30;12.73;;;;;;;20.49;100.00;101298.22;4960428;28;20117;-71
2023/08/17 00:45:18;;;;;;;17.02;13.05;;;;;;;20.48;100.00;101293.06;4963019;28;20049;-71
2023/08/17 00:47:44;;;;;;;17.88;13.25;;;;;;;20.48;100.00;101300.94;4965233;28;22006;-72
2023/08/17 00:50:11;;;;;;;21.80;14.20;;;;;;;20.50;100.00;101297.31;4957038;28;20031;-71
2023/08/17 00:52:37;;;;;;;13.15;10.50;;;;;;;20.52;100.00;101292.00;4964558;28;20567;-71
2023/08/17 00:55:04;;;;;;;17.95;12.25;;;;;;;20.54;100.00;101295.44;4964048;28;20043;-71
2023/08/17 00:57:30;;;;;;;21.45;14.55;;;;;;;20.53;100.00;101291.09;4965666;28;20446;-72
2023/08/17 00:59:56;;;;;;;20.75;13.68;;;;;;;20.55;100.00;101286.63;4964916;28;20102;-72
2023/08/17 01:02:21;;;;;;;18.83;12.95;;;;;;;20.54;100.00;101284.94;4961705;28;20114;-71
2023/08/17 01:04:46;;;;;;;14.07;11.13;;;;;;;20.55;100.00;101284.00;4967168;28;20125;-71
2023/08/17 01:07:12;;;;;;;22.08;15.20;;;;;;;20.52;100.00;101286.75;4966873;28;20501;-72
2023/08/17 01:09:38;;;;;;;21.02;14.48;;;;;;;20.52;100.00;101273.59;4974007;28;20043;-71
2023/08/17 01:12:45;;;;;;;16.23;13.20;;;;;;;20.49;100.00;101273.72;4977463;28;20049;-70
2023/08/17 01:15:23;;;;;;;18.45;13.38;;;;;;;20.47;100.00;101259.81;4892377;29;20547;-71
2023/08/17 01:18:10;;;;;;;14.50;11.25;;;;;;;20.47;100.00;101268.56;4890620;29;20039;-71
2023/08/17 01:20:36;;;;;;;16.10;12.13;;;;;;;20.47;100.00;101271.19;4944584;28;20437;-71
2023/08/17 01:23:05;;;;;;;13.52;10.90;;;;;;;20.47;100.00;101267.69;4970758;28;20042;-72
2023/08/17 01:25:36;;;;;;;12.55;11.10;;;;;;;20.47;100.00;101276.44;4966025;28;20038;-71
2023/08/17 01:28:02;;;;;;;15.43;11.88;;;;;;;20.47;100.00;101270.31;4967029;28;20045;-71
2023/08/17 01:30:28;;;;;;;15.55;12.00;;;;;;;20.45;100.00;101273.00;4965660;28;20547;-72
2023/08/17 01:32:53;;;;;;;19.73;14.02;;;;;;;20.43;100.00;101274.84;4965068;28;20160;-71
2023/08/17 01:35:27;;;;;;;15.27;12.65;;;;;;;20.43;100.00;101277.47;4968299;28;20015;-71
2023/08/17 01:37:56;;;;;;;15.20;11.27;;;;;;;20.43;100.00;101279.25;4966613;28;20050;-71
2023/08/17 01:40:22;;;;;;;16.10;12.20;;;;;;;20.40;100.00;101279.38;4968400;28;20073;-71
2023/08/17 01:42:50;;;;;;;19.45;13.52;;;;;;;20.33;100.00;101273.53;4985125;28;20394;-71
2023/08/17 01:45:16;;;;;;;16.67;11.43;;;;;;;20.30;100.00;101272.78;4968359;28;20504;-70
2023/08/17 01:47:41;;;;;;;14.48;10.70;;;;;;;20.29;100.00;101277.19;4967284;28;20039;-71
2023/08/17 01:50:07;;;;;;;14.02;10.60;;;;;;;20.30;100.00;101281.53;4967749;28;20142;-71
2023/08/17 01:52:32;;;;;;;15.88;10.85;;;;;;;20.28;100.00;101274.59;4967807;28;20042;-72
2023/08/17 01:54:58;;;;;;;14.32;10.60;;;;;;;20.24;100.00;101283.53;4964663;28;20038;-71
2023/08/17 01:57:23;;;;;;;13.80;10.02;;;;;;;20.21;100.00;101279.28;4965468;28;20048;-72
2023/08/17 01:59:48;;;;;;;15.75;10.43;;;;;;;20.21;100.00;101286.28;4960874;28;20026;-71
2023/08/17 02:02:14;;;;;;;18.65;8.93;;;;;;;20.21;100.00;101288.91;4963603;28;20078;-71
2023/08/17 02:04:40;;;;;;;14.88;9.38;;;;;;;20.17;100.00;101289.03;4964549;28;20285;-71
2023/08/17 02:07:05;;;;;;;10.63;9.32;;;;;;;20.12;100.00;101290.13;4964532;28;20051;-71
2023/08/17 02:09:31;;;;;;;14.75;9.73;;;;;;;20.09;100.00;101291.09;4964970;28;20035;-71
2023/08/17 02:11:56;;;;;;;11.85;8.95;;;;;;;20.05;100.00;101293.91;4967785;28;20440;-71
2023/08/17 02:14:21;;;;;;;17.42;9.95;;;;;;;20.04;100.00;101290.41;4962929;28;20113;-71
2023/08/17 02:16:47;;;;;;;15.20;9.45;;;;;;;20.03;100.00;101287.88;4959680;28;20046;-71
2023/08/17 02:19:13;;;;;;;14.18;8.35;;;;;;;20.02;100.00;101294.88;4963185;28;20521;-71
2023/08/17 02:21:38;;;;;;;13.10;9.55;;;;;;;20.03;100.00;101290.50;4964583;28;20453;-71
2023/08/17 02:24:04;;;;;;;13.27;10.63;;;;;;;20.02;100.00;101287.00;4967690;28;20031;-71
2023/08/17 02:26:30;;;;;;;12.90;9.93;;;;;;;20.02;100.00;101294.00;4965974;28;20117;-71
2023/08/17 02:28:55;;;;;;;18.25;10.77;;;;;;;20.01;100.00;101279.16;4967166;28;20126;-71
2023/08/17 02:31:21;;;;;;;16.35;10.68;;;;;;;20.03;100.00;101282.63;4965641;28;20122;-71
2023/08/17 02:33:46;;;;;;;12.82;9.57;;;;;;;20.01;100.00;101272.16;4969968;28;20096;-72
2023/08/17 02:36:11;;;;;;;12.70;10.00;;;;;;;20.01;100.00;101266.91;4966888;28;20102;-71
2023/08/17 02:38:37;;;;;;;14.73;10.32;;;;;;;19.99;100.00;101268.75;4971247;28;20086;-71
2023/08/17 02:41:02;;;;;;;15.60;11.07;;;;;;;19.99;100.00;101266.13;4974464;28;20066;-71
2023/08/17 02:43:27;;;;;;;13.80;11.00;;;;;;;19.99;100.00;101260.88;4968109;28;20449;-71
2023/08/17 02:45:53;;;;;;;17.30;11.70;;;;;;;19.97;100.00;101260.09;4971023;28;20033;-72
2023/08/17 02:48:18;;;;;;;14.18;11.55;;;;;;;19.98;100.00;101255.69;4959541;28;20440;-72
2023/08/17 02:50:44;;;;;;;18.27;12.05;;;;;;;19.98;100.00;101253.06;4966009;28;20109;-71
2023/08/17 02:53:09;;;;;;;13.55;11.10;;;;;;;19.99;100.00;101247.75;4969227;28;20035;-71
2023/08/17 02:55:35;;;;;;;18.65;14.25;;;;;;;19.99;100.00;101246.91;4966320;28;20113;-71
2023/08/17 02:58:00;;;;;;;16.33;12.57;;;;;;;19.98;100.00;101242.56;4964117;28;20039;-71
2023/08/17 03:00:26;;;;;;;24.55;15.15;;;;;;;19.99;100.00;101241.66;4964113;28;20134;-71
2023/08/17 03:02:52;;;;;;;20.58;14.85;;;;;;;19.98;100.00;101240.78;4963213;28;20045;-71
2023/08/17 03:05:18;;;;;;;20.52;14.32;;;;;;;19.98;100.00;101243.41;4963413;28;20024;-71
2023/08/17 03:07:43;;;;;;;20.92;14.63;;;;;;;19.94;100.00;101235.75;4964054;28;20221;-71
2023/08/17 03:10:09;;;;;;;18.55;13.77;;;;;;;19.92;100.00;101248.91;4966472;28;20041;-71
2023/08/17 03:12:34;;;;;;;19.98;15.45;;;;;;;19.92;100.00;101235.78;4965976;28;20039;-71
2023/08/17 03:15:00;;;;;;;21.23;14.30;;;;;;;19.91;100.00;101233.25;4979759;28;20047;-72
2023/08/17 03:17:25;;;;;;;18.83;13.85;;;;;;;19.91;100.00;101241.97;4974434;28;20026;-71
2023/08/17 03:19:50;;;;;;;18.75;14.98;;;;;;;19.92;100.00;101246.28;4971225;28;20045;-71
2023/08/17 03:22:16;;;;;;;21.90;14.07;;;;;;;19.92;100.00;101238.41;4990895;28;20032;-71
2023/08/17 03:24:41;;;;;;;20.23;14.50;;;;;;;19.90;100.00;101231.50;4962776;28;20070;-71
2023/08/17 03:27:06;;;;;;;20.02;14.63;;;;;;;19.93;100.00;101232.25;4972814;28;20690;-71
2023/08/17 03:29:32;;;;;;;20.15;12.98;;;;;;;19.91;100.00;101236.72;4982674;28;20029;-71
2023/08/17 03:31:57;;;;;;;17.02;12.68;;;;;;;19.90;100.00;101240.25;4982866;28;20512;-71
2023/08/17 03:34:23;;;;;;;14.75;11.20;;;;;;;19.92;100.00;101225.28;4978335;28;20134;-72
2023/08/17 03:36:49;;;;;;;17.15;11.48;;;;;;;19.93;100.00;101239.28;4977298;28;20030;-72
2023/08/17 03:39:15;;;;;;;14.07;10.13;;;;;;;19.93;100.00;101232.25;4981735;28;20034;-71
2023/08/17 03:41:41;;;;;;;16.25;10.85;;;;;;;19.95;100.00;101235.66;4982611;28;20069;-71
2023/08/17 03:44:07;;;;;;;11.23;10.00;;;;;;;19.94;100.00;101233.97;4986854;28;20054;-71
2023/08/17 03:46:32;;;;;;;14.00;10.10;;;;;;;19.94;100.00;101233.97;4986372;28;20385;-71
2023/08/17 03:48:58;;;;;;;17.30;11.27;;;;;;;19.96;100.00;101233.91;4979147;28;20042;-71
2023/08/17 03:51:23;;;;;;;15.57;11.27;;;;;;;19.96;100.00;101234.75;4968345;28;20054;-71
2023/08/17 03:53:48;;;;;;;19.55;12.65;;;;;;;19.96;100.00;101237.38;4988209;28;20116;-71
2023/08/17 03:56:14;;;;;;;13.52;10.63;;;;;;;19.96;100.00;101239.16;4986003;28;20046;-71
2023/08/17 03:58:40;;;;;;;14.38;11.48;;;;;;;19.94;100.00;101231.34;4970239;28;20046;-71
2023/08/17 04:01:06;;;;;;;14.38;12.13;;;;;;;19.94;100.00;101247.09;4976447;28;20480;-71
2023/08/17 04:03:32;;;;;;;19.58;11.88;;;;;;;19.91;100.00;101243.72;4968377;28;20118;-71
2023/08/17 04:05:57;;;;;;;12.13;10.15;;;;;;;19.91;100.00;101252.47;4986260;28;20451;-71
2023/08/17 04:08:22;;;;;;;14.68;12.18;;;;;;;19.90;100.00;101253.38;4987769;28;20161;-72
2023/08/17 04:10:48;;;;;;;17.45;12.55;;;;;;;19.90;100.00;101258.63;4993813;28;20034;-71
2023/08/17 04:13:13;;;;;;;15.02;10.93;;;;;;;19.93;100.00;101260.25;4995109;28;20037;-72
2023/08/17 04:15:38;;;;;;;15.57;11.43;;;;;;;19.91;100.00;101267.34;4988909;28;20046;-71
2023/08/17 04:18:04;;;;;;;13.45;9.77;;;;;;;19.89;100.00;101267.38;4990485;28;20492;-72
2023/08/17 04:20:29;;;;;;;9.57;8.45;;;;;;;19.89;100.00;101266.56;4984746;28;20377;-72
2023/08/17 04:22:54;;;;;;;13.45;9.43;;;;;;;19.84;100.00;101258.84;4968011;28;20514;-72
2023/08/17 04:25:21;;;;;;;14.13;9.20;;;;;;;19.78;100.00;101259.06;4980246;28;20514;-71
2023/08/17 04:27:46;;;;;;;11.50;8.82;;;;;;;19.78;100.00;101261.69;4979727;28;20041;-71
2023/08/17 04:30:12;;;;;;;11.48;9.55;;;;;;;19.77;100.00;101262.56;4983845;28;20685;-71
2023/08/17 04:32:37;;;;;;;11.43;8.95;;;;;;;19.77;100.00;101270.44;4982686;28;20026;-70
2023/08/17 04:35:03;;;;;;;14.00;8.88;;;;;;;19.76;100.00;101274.00;4985671;28;20085;-71
2023/08/17 04:37:28;;;;;;;12.27;8.35;;;;;;;19.75;100.00;101276.66;4962932;28;20035;-71
2023/08/17 04:39:54;;;;;;;12.88;8.50;;;;;;;19.75;100.00;101281.91;4968426;28;20053;-72
2023/08/17 04:42:19;;;;;;;11.82;9.13;;;;;;;19.73;100.00;101283.75;4961377;28;20178;-71
2023/08/17 04:44:45;;;;;;;14.15;9.15;;;;;;;19.75;100.00;101289.78;4965545;28;20062;-71
2023/08/17 04:47:10;;;;;;;11.88;9.50;;;;;;;19.73;100.00;101289.84;4965248;28;20066;-71
2023/08/17 04:49:36;;;;;;;9.32;8.38;;;;;;;19.75;100.00;101301.13;4962101;28;20403;-71
2023/08/17 04:52:02;;;;;;;11.50;9.30;;;;;;;19.77;100.00;101303.72;4988514;28;20041;-71
2023/08/17 04:54:27;;;;;;;12.48;9.23;;;;;;;19.78;100.00;101315.91;4983521;28;20046;-71
2023/08/17 04:56:53;;;;;;;9.68;8.18;;;;;;;19.74;100.00;101317.78;4966337;28;20103;-71
2023/08/17 04:59:18;;;;;;;10.77;8.30;;;;;;;19.74;100.00;101307.28;4961827;28;20034;-71
2023/08/17 05:01:43;;;;;;;11.95;7.80;;;;;;;19.68;100.00;101304.06;4978803;28;20050;-72
2023/08/17 05:04:09;;;;;;;11.40;7.68;;;;;;;19.70;100.00;101313.59;4983679;28;20048;-71
2023/08/17 05:06:34;;;;;;;8.15;7.22;;;;;;;19.72;100.00;101308.25;4981840;28;20050;-71
2023/08/17 05:09:00;;;;;;;11.35;8.43;;;;;;;19.68;100.00;101304.88;4984394;28;20105;-71
2023/08/17 05:11:25;;;;;;;10.77;8.43;;;;;;;19.66;100.00;101313.72;4979752;28;20040;-71
2023/08/17 05:13:50;;;;;;;11.05;8.70;;;;;;;19.63;100.00;101309.47;4961199;28;20114;-71
2023/08/17 05:16:16;;;;;;;12.98;9.32;;;;;;;19.60;100.00;101305.19;4966938;28;20031;-71
2023/08/17 05:18:41;;;;;;;11.82;9.30;;;;;;;19.57;100.00;101305.31;4982342;28;20046;-71
2023/08/17 05:21:06;;;;;;;13.02;8.93;;;;;;;19.51;100.00;101313.38;4982669;28;20039;-71
2023/08/17 05:23:32;;;;;;;10.93;9.23;;;;;;;19.49;100.00;101314.38;4984502;28;20512;-71
2023/08/17 05:25:57;;;;;;;14.75;8.88;;;;;;;19.46;100.00;101312.72;4964529;28;20138;-71
2023/08/17 05:28:23;;;;;;;9.02;8.13;;;;;;;19.42;100.00;101313.72;4979076;28;20080;-71
2023/08/17 05:30:49;;;;;;;14.40;8.32;;;;;;;19.43;100.00;101309.34;4978710;28;20042;-71
2023/08/17 05:33:14;;;;;;;11.10;8.23;;;;;;;19.42;100.00;101310.25;4965804;28;20031;-71
2023/08/17 05:35:39;;;;;;;12.00;8.73;;;;;;;19.46;100.00;101311.84;4990105;28;20102;-71
2023/08/17 05:38:05;;;;;;;12.25;8.18;;;;;;;19.48;100.00;101318.75;4982014;28;20038;-71
2023/08/17 05:40:31;;;;;;;11.18;8.07;;;;;;;19.42;100.00;101325.97;4973863;28;20074;-70
2023/08/17 05:42:57;;;;;;;10.85;8.23;;;;;;;19.39;100.00;101321.69;4972749;28;20043;-72
2023/08/17 05:45:22;;;;;;;15.00;8.77;;;;;;;19.32;100.00;101328.09;4989122;28;20065;-71
2023/08/17 05:47:47;;;;;;;14.05;9.38;;;;;;;19.31;100.00;101328.13;4979378;28;20423;-71
2023/08/17 05:50:13;;;;;;;9.68;7.28;;;;;;;19.31;100.00;101328.13;4984917;28;20400;-71
2023/08/17 05:52:41;;;;;;;11.30;8.45;;;;;;;19.27;100.00;101330.00;4985148;28;20131;-71
2023/08/17 05:55:07;;;;;;;9.02;8.20;;;;;;;19.26;100.00;101330.94;4967447;28;20034;-71
2023/08/17 05:57:32;;;;;;;11.70;9.23;;;;;;;19.25;100.00;101333.59;4983801;28;20099;-71
2023/08/17 05:59:57;;;;;;;11.90;7.88;;;;;;;19.29;100.00;101337.81;4971496;28;20049;-71
2023/08/17 06:02:23;;;;;;;11.30;9.10;;;;;;;19.31;100.00;101341.22;4970372;28;20161;-71
2023/08/17 06:04:48;;;;;;;16.42;9.25;;;;;;;19.28;100.00;101338.72;4986015;28;20120;-71
2023/08/17 06:07:14;;;;;;;10.60;8.55;;;;;;;19.25;100.00;101339.69;4982678;28;20038;-71
2023/08/17 06:09:39;;;;;;;10.95;8.55;;;;;;;19.29;100.00;101345.69;4987963;28;20050;-69
2023/08/17 06:12:05;;;;;;;11.30;8.40;;;;;;;19.31;100.00;101344.72;4988985;28;20026;-69
2023/08/17 06:14:32;;;;;;;11.43;9.10;;;;;;;19.30;100.00;101345.63;4986879;28;20029;-71
2023/08/17 06:16:58;;;;;;;12.98;8.98;;;;;;;19.29;100.00;101335.19;4985214;28;20089;-71
2023/08/17 06:19:23;;;;;;;13.27;9.68;;;;;;;19.28;100.00;101338.72;4987920;28;20192;-71
2023/08/17 06:21:48;;;;;;;12.20;10.30;;;;;;;19.26;100.00;101336.16;4995832;28;20062;-70
2023/08/17 06:24:14;;;;;;;14.30;10.02;;;;;;;19.29;100.00;101336.06;4978952;28;20069;-70
2023/08/17 06:26:39;;;;;;;11.85;9.57;;;;;;;19.34;100.00;101331.50;4989091;28;20523;-71
2023/08/17 06:29:05;;;;;;;18.02;9.63;;;;;;;19.40;100.00;101333.03;4989434;28;20055;-70
2023/08/17 06:31:30;;;;;;;15.70;10.05;;;;;;;19.42;100.00;101334.69;4986948;28;20064;-71
2023/08/17 06:33:55;;;;;;;16.75;10.23;;;;;;;19.50;100.00;101335.28;4987047;28;20041;-71
2023/08/17 06:36:21;;;;;;;13.20;9.55;;;;;;;19.58;100.00;101335.00;4983085;28;20693;-69
2023/08/17 06:38:47;;;;;;;10.20;8.63;;;;;;;19.65;100.00;101333.03;4985483;28;20014;-70
2023/08/17 06:41:12;;;;;;;12.82;9.70;;;;;;;19.68;100.00;101330.28;4987061;28;20701;-69
2023/08/17 06:43:38;;;;;;;14.73;10.18;;;;;;;19.76;100.00;101331.72;4961165;28;20062;-69
2023/08/17 06:46:03;;;;;;;15.35;9.98;;;;;;;19.78;100.00;101332.50;4982705;28;20050;-70
2023/08/17 06:48:29;;;;;;;14.73;9.90;;;;;;;19.85;100.00;101333.16;4965920;28;20644;-69
2023/08/17 06:50:54;;;;;;;13.70;10.65;;;;;;;19.87;100.00;101337.44;4987222;28;20037;-69
2023/08/17 06:53:19;;;;;;;20.80;10.85;;;;;;;19.88;100.00;101338.31;4966945;28;20244;-69
2023/08/17 06:55:45;;;;;;;15.70;9.48;;;;;;;19.91;100.00;101339.06;4984762;28;20062;-69
2023/08/17 06:58:11;;;;;;;22.25;12.18;;;;;;;19.90;100.00;101342.56;4962882;28;20042;-69
2023/08/17 07:00:36;;;;;;;14.95;10.82;;;;;;;19.93;100.00;101333.72;4981926;28;20058;-69
2023/08/17 07:03:02;;;;;;;18.98;11.90;;;;;;;19.97;100.00;101330.94;4982184;28;20038;-69
2023/08/17 07:05:27;;;;;;;14.90;10.43;;;;;;;20.04;100.00;101339.41;4979413;28;20113;-70
2023/08/17 07:07:53;;;;;;;22.77;12.35;;;;;;;20.06;100.00;101350.72;4981703;28;20058;-70
2023/08/17 07:10:18;;;;;;;26.95;13.80;;;;;;;20.09;99.95;101343.59;4989365;28;20101;-70
2023/08/17 07:12:44;;;;;;;28.95;13.45;;;;;;;20.08;99.81;101351.53;4997678;28;20046;-70
2023/08/17 07:15:10;;;;;;;22.58;13.07;;;;;;;20.18;100.00;101342.38;4983920;28;20468;-70
2023/08/17 07:17:36;;;;;;;29.05;13.18;;;;;;;20.16;99.49;101339.81;4986563;28;20026;-70
2023/08/17 07:20:02;;;;;;;24.88;14.18;;;;;;;20.12;99.93;101343.50;4970278;28;20043;-69
2023/08/17 07:22:27;;;;;;;23.23;13.93;;;;;;;20.08;99.59;101347.13;4987425;28;20043;-69
2023/08/17 07:24:53;;;;;;;25.08;13.80;;;;;;;20.13;100.00;101350.44;4986659;28;20444;-70
2023/08/17 07:27:18;;;;;;;21.15;13.80;;;;;;;20.06;99.95;101356.84;4968303;28;20038;-70
2023/08/17 07:29:44;;;;;;;26.52;13.88;;;;;;;20.08;100.00;101359.41;4973389;28;20038;-69
2023/08/17 07:32:09;;;;;;;31.83;14.77;;;;;;;20.05;100.00;101359.50;4969791;28;20042;-70
2023/08/17 07:34:36;;;;;;;29.75;14.45;;;;;;;20.10;100.00;101363.66;4986083;28;20034;-69
2023/08/17 07:37:01;;;;;;;32.83;15.70;;;;;;;20.04;100.00;101363.91;4976935;28;20038;-69
2023/08/17 07:39:27;;;;;;;28.42;15.15;;;;;;;20.11;100.00;101370.63;4985799;28;20054;-70
2023/08/17 07:41:52;;;;;;;30.27;16.38;;;;;;;20.15;100.00;101374.00;4979778;28;20022;-70
2023/08/17 07:44:17;;;;;;;31.58;15.23;;;;;;;20.17;100.00;101378.28;4980966;28;20109;-68
2023/08/17 07:46:43;;;;;;;33.47;15.52;;;;;;;20.23;100.00;101381.56;4980531;28;20117;-68
2023/08/17 07:49:09;;;;;;;31.55;15.93;;;;;;;20.17;100.00;101383.53;4963901;28;20176;-68
2023/08/17 07:51:35;;;;;;;25.88;14.00;;;;;;;20.30;100.00;101385.69;4982164;28;20037;-68
2023/08/17 07:54:00;;;;;;;27.40;15.52;;;;;;;20.20;100.00;101386.94;4988395;28;20030;-68
2023/08/17 07:56:26;;;;;;;29.63;16.58;;;;;;;20.21;100.00;101380.78;4984812;28;20021;-69
2023/08/17 07:58:53;;;;;;;30.83;17.27;;;;;;;20.25;100.00;101380.59;4981987;28;20035;-70
2023/08/17 08:01:19;;;;;;;29.30;15.73;;;;;;;20.34;100.00;101377.63;4982876;28;20034;-70
2023/08/17 08:03:44;;;;;;;28.42;17.13;;;;;;;20.40;100.00;101376.53;4982188;28;20621;-70
2023/08/17 08:06:10;;;;;;;24.23;14.02;;;;;;;20.56;100.00;101381.13;4959965;28;20030;-69
2023/08/17 08:08:35;;;;;;;21.63;13.23;;;;;;;20.73;100.00;101383.09;4984702;28;20457;-69
2023/08/17 08:11:01;;;;;;;30.02;17.25;;;;;;;20.80;99.21;101379.31;4981785;28;20169;-69
2023/08/17 08:13:26;;;;;;;26.98;15.65;;;;;;;20.76;97.56;101380.34;4964709;28;20031;-70
2023/08/17 08:15:51;;;;;;;20.92;12.80;;;;;;;20.94;97.51;101387.50;4964658;28;20045;-69
2023/08/17 08:18:17;;;;;;;27.15;14.52;;;;;;;21.06;96.69;101379.09;4981141;28;20064;-70
2023/08/17 08:20:42;;;;;;;21.17;15.35;;;;;;;21.17;97.01;101368.97;4964908;28;20046;-70
2023/08/17 08:23:07;;;;;;;20.27;15.00;;;;;;;21.24;96.53;101375.69;4985413;28;20034;-69
2023/08/17 08:25:33;;;;;;;24.73;16.52;;;;;;;21.36;95.72;101371.69;4968804;28;20034;-69
2023/08/17 08:27:58;;;;;;;25.55;16.15;;;;;;;21.48;95.24;101368.53;4981106;28;20049;-70
2023/08/17 08:30:23;;;;;;;25.20;20.75;;;;;;;21.61;93.75;101371.50;4983933;28;20633;-69
2023/08/17 08:32:50;;;;;;;23.20;16.73;;;;;;;21.59;92.90;101362.81;4985254;28;20038;-70
2023/08/17 08:35:15;;;;;;;20.80;17.08;;;;;;;21.67;92.65;101358.91;4983662;28;20703;-70
2023/08/17 08:37:40;;;;;;;31.63;21.60;;;;;;;21.61;91.29;101351.28;4971154;28;20042;-70
2023/08/17 08:40:11;;;;;;;27.15;18.90;;;;;;;21.68;91.78;101355.38;4985927;28;20081;-70
2023/08/17 08:42:36;;;;;;;21.33;16.55;;;;;;;21.81;91.96;101355.69;4995110;28;20102;-70
2023/08/17 08:45:02;;;;;;;19.73;15.43;;;;;;;21.94;91.96;101353.34;4972460;28;20057;-69
2023/08/17 08:47:31;;;;;;;27.50;20.40;;;;;;;22.05;90.97;101356.31;4962681;28;20031;-70
2023/08/17 08:50:02;;;;;;;26.40;22.17;;;;;;;22.12;89.79;101352.47;4980169;28;20049;-70
2023/08/17 08:52:49;;;;;;;31.67;20.63;;;;;;;22.18;89.19;101353.03;4983879;28;20043;-70
2023/08/17 08:55:18;;;;;;;28.15;20.33;;;;;;;22.20;89.76;101359.09;4956421;28;20047;-69
2023/08/17 08:57:45;;;;;;;36.17;24.80;;;;;;;22.08;88.38;101353.56;4981466;28;20062;-69
2023/08/17 09:00:12;;;;;;;35.67;24.50;;;;;;;21.98;88.31;101354.88;4982008;28;20469;-70
2023/08/17 09:02:38;;;;;;;38.15;25.05;;;;;;;21.72;90.17;101354.31;4985037;28;20051;-70
2023/08/17 09:05:06;;;;;;;33.40;22.95;;;;;;;21.76;90.59;101355.88;4986928;28;20042;-70
2023/08/17 09:07:32;;;;;;;36.33;22.52;;;;;;;21.78;91.86;101356.66;4988746;28;20041;-70
2023/08/17 09:09:58;;;;;;;30.58;20.98;;;;;;;21.87;91.75;101350.13;4984889;28;20049;-70
2023/08/17 09:12:24;;;;;;;31.00;22.92;;;;;;;21.66;91.19;101357.22;4984102;28;20030;-69
2023/08/17 09:14:50;;;;;;;32.53;21.52;;;;;;;21.72;91.73;101356.09;4982436;28;20522;-69
2023/08/17 09:17:26;;;;;;;30.00;21.52;;;;;;;21.53;92.29;101349.88;4984552;28;20049;-69
2023/08/17 09:19:52;;;;;;;29.27;19.30;;;;;;;21.48;92.88;101346.63;4980919;28;20039;-70
2023/08/17 09:22:24;;;;;;;33.67;22.17;;;;;;;21.58;92.38;101348.78;4984226;28;20558;-69
2023/08/17 09:24:50;;;;;;;33.60;20.50;;;;;;;21.66;92.35;101351.09;4982042;28;20049;-70
2023/08/17 09:27:16;;;;;;;34.65;23.17;;;;;;;21.64;93.72;101352.94;4989422;28;20046;-70
2023/08/17 09:29:48;;;;;;;35.83;23.40;;;;;;;21.53;92.86;101352.53;4992272;28;20128;-69
2023/08/17 09:32:14;;;;;;;32.13;22.17;;;;;;;21.54;92.07;101351.59;4992230;28;20042;-69
2023/08/17 09:34:44;;;;;;;35.38;22.42;;;;;;;21.63;93.54;101353.88;4996084;28;20034;-70
2023/08/17 09:37:12;;;;;;;35.65;22.65;;;;;;;21.68;92.98;101343.97;4987930;28;20038;-69
2023/08/17 09:39:37;;;;;;;40.92;24.38;;;;;;;21.59;92.68;101352.28;4977044;28;20089;-69
2023/08/17 09:42:03;;;;;;;41.72;24.08;;;;;;;21.69;91.62;101341.28;5002217;28;20026;-69
2023/08/17 09:44:28;;;;;;;37.17;23.85;;;;;;;21.78;91.94;101346.16;4991273;28;20035;-69
2023/08/17 09:46:57;;;;;;;38.65;23.77;;;;;;;21.84;91.48;101346.78;4968778;28;20328;-69
2023/08/17 09:49:24;;;;;;;40.63;27.38;;;;;;;21.68;90.64;101347.47;4988341;28;20468;-69
2023/08/17 09:51:52;;;;;;;42.08;27.45;;;;;;;21.77;92.11;101341.78;4963445;28;20465;-69
2023/08/17 09:54:22;;;;;;;47.72;30.52;;;;;;;21.82;91.30;101336.31;4977698;28;20086;-69
2023/08/17 09:56:52;;;;;;;43.90;30.85;;;;;;;21.91;90.23;101329.78;4988271;28;20027;-69
2023/08/17 09:59:18;;;;;;;45.65;30.83;;;;;;;21.90;90.24;101330.72;4987772;28;20031;-69
2023/08/17 10:01:48;;;;;;;47.38;32.20;;;;;;;22.00;89.98;101324.94;4987058;28;20054;-69
2023/08/17 10:04:20;;;;;;;48.75;32.55;;;;;;;22.01;88.83;101331.06;4985838;28;20061;-69
2023/08/17 10:06:50;;;;;;;46.58;33.03;;;;;;;22.12;89.36;101331.41;4966585;28;20043;-70
2023/08/17 10:09:22;;;;;;;55.40;37.95;;;;;;;22.31;88.66;101330.47;4972386;28;20121;-69
2023/08/17 10:11:51;;;;;;;51.30;35.88;;;;;;;22.38;87.27;101314.38;4981452;28;20029;-69
2023/08/17 10:14:33;;;;;;;49.28;32.25;;;;;;;22.71;87.21;101323.31;4973978;28;20039;-69
2023/08/17 10:17:12;;;;;;;43.97;31.85;;;;;;;22.89;85.54;101312.66;4964687;28;20106;-69
2023/08/17 10:19:53;;;;;;;42.95;31.23;;;;;;;22.91;83.88;101309.97;4963319;28;20043;-70
2023/08/17 10:22:22;;;;;;;36.70;26.35;;;;;;;23.18;84.00;101316.50;4970822;28;20421;-70
2023/08/17 10:24:49;;;;;;;42.80;27.83;;;;;;;23.03;84.22;101311.13;4965652;28;20606;-70
2023/08/17 10:27:16;;;;;;;44.30;29.25;;;;;;;23.02;84.20;101310.28;4968145;28;20038;-70
2023/08/17 10:29:43;;;;;;;36.20;27.08;;;;;;;22.94;83.61;101309.81;4966873;28;20496;-69
2023/08/17 10:32:08;;;;;;;37.55;26.05;;;;;;;22.99;84.21;101312.22;4967486;28;20031;-69
2023/08/17 10:34:35;;;;;;;30.85;22.00;;;;;;;23.09;83.95;101316.09;4970539;28;20051;-70
2023/08/17 10:37:01;;;;;;;37.95;26.42;;;;;;;23.12;83.35;101315.94;4966281;28;20035;-69
2023/08/17 10:39:28;;;;;;;35.38;24.08;;;;;;;23.38;83.15;101316.31;4975853;28;20088;-69
2023/08/17 10:41:55;;;;;;;32.80;22.35;;;;;;;23.64;82.18;101314.06;4958183;28;20035;-70
2023/08/17 10:44:41;;;;;;;35.00;23.55;;;;;;;23.96;81.05;101308.78;4962544;28;20090;-69
2023/08/17 10:47:20;;;;;;;35.10;24.20;;;;;;;23.98;81.65;101324.56;4963433;28;20694;-69
2023/08/17 10:49:45;;;;;;;30.73;21.83;;;;;;;24.21;80.36;101312.69;4967438;28;20038;-69
2023/08/17 10:52:11;;;;;;;34.05;22.02;;;;;;;24.44;79.80;101310.47;4969228;28;20038;-70
2023/08/17 10:54:38;;;;;;;24.85;17.95;;;;;;;24.37;78.36;101311.72;4968029;28;20054;-69
2023/08/17 10:57:25;;;;;;;23.10;16.40;;;;;;;24.47;75.95;101291.78;4969168;28;20034;-70
2023/08/17 11:00:26;;;;;;;22.60;16.90;;;;;;;23.98;77.22;101304.28;4965916;28;20085;-69
2023/08/17 11:03:09;;;;;;;24.77;17.63;;;;;;;24.00;77.94;101314.75;4968813;28;20461;-69
2023/08/17 11:05:44;;;;;;;19.92;15.55;;;;;;;23.97;77.78;101320.19;4979736;28;20027;-69